Time;durP1;ratioP1;P1;durP2;ratioP2;P2;SDS_P1;SDS_P2;PMS_P1;PMS_P2;Temp;Humidity;BMP_temperature;BMP_pressure;BME280_temperature;BME280_humidity;BME280_pressure;Samples;Min_cycle;Max_cycle;Signal;HPM_P1;HPM_P2
2022/05/16 00:01:54;;;;;;;10.52;7.10;;;;;;;11.36;100.00;95354.16;5073122;28;20044;-72
2022/05/16 00:04:22;;;;;;;11.48;7.90;;;;;;;11.26;100.00;95345.06;5071752;28;20036;-72
2022/05/16 00:06:49;;;;;;;10.32;7.55;;;;;;;11.13;100.00;95328.81;5070281;28;20048;-72
2022/05/16 00:09:15;;;;;;;18.80;7.95;;;;;;;11.18;100.00;95342.78;5074105;28;20697;-72
2022/05/16 00:11:43;;;;;;;12.32;7.90;;;;;;;11.13;100.00;95345.28;5059812;28;20040;-73
2022/05/16 00:14:10;;;;;;;11.18;8.50;;;;;;;11.07;100.00;95340.91;5072048;28;20859;-72
2022/05/16 00:16:38;;;;;;;13.82;8.63;;;;;;;11.02;100.00;95327.75;5080708;28;20032;-72
2022/05/16 00:19:05;;;;;;;14.65;8.77;;;;;;;11.09;100.00;95350.13;5077806;28;20048;-73
2022/05/16 00:21:34;;;;;;;14.90;9.40;;;;;;;11.12;100.00;95335.06;5077827;28;20040;-73
2022/05/16 00:24:04;;;;;;;14.25;10.23;;;;;;;11.02;100.00;95338.19;5076206;28;20117;-73
2022/05/16 00:26:31;;;;;;;18.58;10.95;;;;;;;11.06;100.00;95339.34;5074170;28;20166;-73
2022/05/16 00:28:58;;;;;;;14.80;9.35;;;;;;;11.05;100.00;95348.97;5078032;28;20045;-73
2022/05/16 00:31:25;;;;;;;17.67;12.07;;;;;;;11.06;100.00;95349.78;5081885;28;20101;-73
2022/05/16 00:33:52;;;;;;;19.83;10.75;;;;;;;11.08;100.00;95343.31;5077031;28;20149;-72
2022/05/16 00:36:19;;;;;;;14.27;10.68;;;;;;;11.02;100.00;95338.19;5079635;28;20036;-72
2022/05/16 00:38:45;;;;;;;15.98;10.48;;;;;;;10.98;100.00;95331.81;5077961;28;20055;-73
2022/05/16 00:41:13;;;;;;;11.70;8.55;;;;;;;11.03;100.00;95345.00;5080923;28;20032;-73
2022/05/16 00:43:52;;;;;;;15.63;9.82;;;;;;;10.99;100.00;95346.47;5078141;28;20047;-71
2022/05/16 00:46:20;;;;;;;16.63;9.57;;;;;;;10.90;100.00;95341.53;5077021;28;20043;-72
2022/05/16 00:48:48;;;;;;;14.32;10.00;;;;;;;11.04;100.00;95347.38;5075660;28;20670;-72
2022/05/16 00:51:29;;;;;;;16.42;10.30;;;;;;;11.05;100.00;95335.13;5078268;28;20131;-73
2022/05/16 00:54:11;;;;;;;17.60;11.60;;;;;;;11.14;100.00;95349.44;5071325;28;20052;-72
2022/05/16 00:56:38;;;;;;;17.15;11.43;;;;;;;11.16;100.00;95355.22;5078772;28;20039;-73
2022/05/16 00:59:07;;;;;;;18.73;11.32;;;;;;;11.19;100.00;95354.81;5075024;28;20048;-72
2022/05/16 01:07:06;;;;;;;17.48;10.73;;;;;;;11.12;100.00;95342.88;5076314;28;20051;-73
2022/05/16 01:09:33;;;;;;;18.80;11.80;;;;;;;11.08;100.00;95347.75;5075822;28;20055;-72
2022/05/16 01:12:00;;;;;;;15.48;10.75;;;;;;;11.14;100.00;95346.84;5080097;28;20048;-72
2022/05/16 01:14:40;;;;;;;21.13;9.82;;;;;;;11.13;100.00;95347.88;5073931;28;20044;-72
2022/05/16 01:17:08;;;;;;;15.27;10.05;;;;;;;11.01;100.00;95347.03;5074080;28;20040;-72
2022/05/16 01:19:35;;;;;;;17.00;10.73;;;;;;;10.72;100.00;95307.69;5073860;28;20056;-73
2022/05/16 01:22:09;;;;;;;13.88;9.57;;;;;;;10.68;100.00;95322.19;5077178;28;20048;-72
2022/05/16 01:24:35;;;;;;;24.60;10.48;;;;;;;10.75;100.00;95348.13;5070897;28;20032;-72
2022/05/16 01:27:02;;;;;;;17.83;10.98;;;;;;;10.72;100.00;95341.56;5073120;28;20051;-72
2022/05/16 01:29:29;;;;;;;16.90;10.43;;;;;;;10.54;100.00;95318.16;5075206;28;20040;-72
2022/05/16 01:31:56;;;;;;;16.60;9.07;;;;;;;10.56;100.00;95329.13;5079802;28;20028;-72
2022/05/16 01:34:23;;;;;;;15.30;10.10;;;;;;;10.45;100.00;95328.84;5079496;28;20040;-72
2022/05/16 01:36:50;;;;;;;16.75;8.75;;;;;;;10.35;100.00;95318.13;5067977;28;20040;-72
2022/05/16 01:39:17;;;;;;;16.38;9.00;;;;;;;10.37;100.00;95334.38;5066261;28;20055;-72
2022/05/16 01:41:43;;;;;;;14.30;8.68;;;;;;;10.35;100.00;95338.97;5073366;28;20043;-73
2022/05/16 01:44:10;;;;;;;12.93;8.68;;;;;;;10.32;100.00;95335.00;5066995;28;20036;-74
2022/05/16 01:46:40;;;;;;;12.02;8.77;;;;;;;10.28;100.00;95338.19;5077193;28;20054;-73
2022/05/16 01:49:09;;;;;;;18.40;9.23;;;;;;;10.22;100.00;95328.66;5052249;28;20049;-73
2022/05/16 01:51:36;;;;;;;16.10;8.68;;;;;;;10.26;100.00;95335.84;5064626;28;20140;-73
2022/05/16 01:54:04;;;;;;;12.52;8.20;;;;;;;10.24;100.00;95331.84;5069842;28;20048;-71
2022/05/16 01:56:34;;;;;;;19.35;8.77;;;;;;;10.17;100.00;95331.13;5069800;28;20043;-72
2022/05/16 01:59:04;;;;;;;17.15;9.18;;;;;;;10.17;100.00;95320.72;5076244;28;20044;-71
2022/05/16 02:01:31;;;;;;;10.18;7.28;;;;;;;10.17;100.00;95334.50;5071532;28;20043;-71
2022/05/16 02:03:59;;;;;;;11.50;8.18;;;;;;;10.14;100.00;95330.53;5072716;28;20040;-71
2022/05/16 02:06:27;;;;;;;12.60;8.93;;;;;;;10.11;100.00;95317.16;5073173;28;20048;-72
2022/05/16 02:08:55;;;;;;;12.43;8.10;;;;;;;10.18;100.00;95333.50;5073373;28;20045;-72
2022/05/16 02:11:22;;;;;;;11.35;8.07;;;;;;;10.19;100.00;95342.94;5075130;28;20050;-72
2022/05/16 02:13:49;;;;;;;9.40;7.05;;;;;;;10.16;100.00;95339.94;5067734;28;20175;-72
2022/05/16 02:16:16;;;;;;;13.50;8.98;;;;;;;10.12;100.00;95344.78;5073513;28;20105;-72
2022/05/16 02:18:43;;;;;;;14.55;9.27;;;;;;;10.11;100.00;95349.19;5076313;28;20094;-72
2022/05/16 02:26:46;;;;;;;12.63;8.38;;;;;;;10.21;100.00;95359.13;5071289;28;20048;-72
2022/05/16 02:29:15;;;;;;;11.43;8.32;;;;;;;10.21;100.00;95353.09;5073802;28;20059;-72
2022/05/16 02:31:42;;;;;;;16.13;10.45;;;;;;;10.19;100.00;95342.09;5077717;28;20052;-73
2022/05/16 02:34:10;;;;;;;15.30;9.75;;;;;;;10.13;100.00;95352.38;5068765;28;20056;-72
2022/05/16 02:36:36;;;;;;;14.98;9.70;;;;;;;10.05;100.00;95350.06;5077261;28;20503;-73
2022/05/16 02:39:04;;;;;;;14.90;8.98;;;;;;;10.11;100.00;95364.81;5061089;28;20557;-73
2022/05/16 02:41:31;;;;;;;13.40;9.15;;;;;;;10.04;100.00;95353.66;5067971;28;21426;-73
2022/05/16 02:43:58;;;;;;;12.15;8.32;;;;;;;10.12;100.00;95361.19;5077193;28;20048;-73
2022/05/16 02:46:25;;;;;;;17.65;8.32;;;;;;;9.95;100.00;95365.34;5054455;28;20040;-73
2022/05/16 02:48:52;;;;;;;14.70;9.00;;;;;;;9.75;100.00;95355.91;5073130;28;20070;-74
2022/05/16 02:51:19;;;;;;;12.85;9.05;;;;;;;9.59;100.00;95356.41;5073962;28;20051;-74
2022/05/16 02:53:46;;;;;;;11.43;7.88;;;;;;;9.54;100.00;95374.47;5072911;28;20056;-74
2022/05/16 02:56:13;;;;;;;16.58;10.05;;;;;;;9.33;100.00;95355.59;5071032;28;20052;-74
2022/05/16 02:58:40;;;;;;;12.45;8.35;;;;;;;9.41;100.00;95374.56;5069543;28;20408;-74
2022/05/16 03:01:07;;;;;;;11.68;8.60;;;;;;;9.42;100.00;95370.94;5065308;28;20040;-74
2022/05/16 03:03:35;;;;;;;11.45;7.18;;;;;;;9.43;100.00;95369.94;5067369;28;20048;-73
2022/05/16 03:06:03;;;;;;;19.48;9.18;;;;;;;9.42;100.00;95373.53;5067403;28;20091;-73
2022/05/16 03:08:30;;;;;;;23.08;9.13;;;;;;;9.42;100.00;95373.53;5072777;28;20048;-74
2022/05/16 03:10:57;;;;;;;14.50;9.52;;;;;;;9.40;100.00;95358.16;5078189;28;20124;-73
2022/05/16 03:13:24;;;;;;;13.05;8.65;;;;;;;9.45;100.00;95368.72;5068902;28;20827;-74
2022/05/16 03:15:51;;;;;;;14.65;8.15;;;;;;;9.36;100.00;95368.19;5056039;28;20044;-73
2022/05/16 03:18:18;;;;;;;13.68;8.95;;;;;;;9.33;100.00;95366.00;5074548;28;20040;-73
2022/05/16 03:20:45;;;;;;;14.25;9.15;;;;;;;9.28;100.00;95350.22;5078971;28;20054;-73
2022/05/16 03:23:12;;;;;;;14.10;8.30;;;;;;;9.38;100.00;95363.56;5064572;28;20123;-73
2022/05/16 03:25:39;;;;;;;11.00;8.32;;;;;;;9.44;100.00;95358.53;5073504;28;20597;-73
2022/05/16 03:28:06;;;;;;;14.63;9.07;;;;;;;9.34;100.00;95335.59;5073736;28;20046;-73
2022/05/16 03:30:33;;;;;;;13.18;8.45;;;;;;;9.46;100.00;95346.91;5075618;28;20066;-74
2022/05/16 03:33:00;;;;;;;13.25;8.52;;;;;;;9.49;100.00;95348.28;5077575;28;20051;-73
2022/05/16 03:35:27;;;;;;;11.10;8.20;;;;;;;9.54;100.00;95348.47;5075673;28;20047;-73
2022/05/16 03:37:54;;;;;;;14.10;9.23;;;;;;;9.63;100.00;95347.19;5079477;28;20525;-73
2022/05/16 03:43:06;;;;;;;14.00;8.40;;;;;;;9.58;100.00;95328.84;5071836;28;20047;-73
2022/05/16 03:45:33;;;;;;;24.60;10.18;;;;;;;9.77;100.00;95359.06;5073469;28;20608;-73
2022/05/16 03:48:00;;;;;;;13.40;9.45;;;;;;;9.87;100.00;95363.03;5062087;28;20639;-73
2022/05/16 03:50:27;;;;;;;12.63;8.95;;;;;;;9.94;100.00;95361.16;5079241;28;20050;-72
2022/05/16 03:52:54;;;;;;;13.80;9.55;;;;;;;9.97;100.00;95358.13;5056037;28;20051;-73
2022/05/16 03:55:21;;;;;;;17.75;11.25;;;;;;;10.10;100.00;95358.03;5070878;28;20040;-72
2022/05/16 03:57:48;;;;;;;15.82;10.30;;;;;;;10.28;100.00;95372.06;5076157;28;20040;-73
2022/05/16 04:00:16;;;;;;;14.57;9.80;;;;;;;10.46;100.00;95377.31;5072790;28;20063;-74
2022/05/16 04:02:43;;;;;;;23.60;11.38;;;;;;;10.63;100.00;95377.53;5070222;28;20052;-71
2022/05/16 04:05:15;;;;;;;14.80;10.60;;;;;;;10.81;100.00;95379.34;5055443;28;20040;-71
2022/05/16 04:07:42;;;;;;;14.98;10.25;;;;;;;10.93;100.00;95382.00;5071005;28;20569;-71
2022/05/16 04:10:10;;;;;;;17.30;10.82;;;;;;;11.07;100.00;95387.84;5075239;28;20039;-71
2022/05/16 04:12:37;;;;;;;16.23;10.10;;;;;;;11.17;100.00;95385.50;5074058;28;20044;-71
2022/05/16 04:15:07;;;;;;;18.77;10.98;;;;;;;11.14;100.00;95398.97;5072482;28;20849;-75
2022/05/16 04:17:34;;;;;;;17.52;10.38;;;;;;;11.28;100.00;95395.19;5073301;28;20503;-72
2022/05/16 04:20:01;;;;;;;17.60;10.93;;;;;;;11.42;100.00;95400.25;5072660;28;20048;-73
2022/05/16 04:22:27;;;;;;;18.55;10.35;;;;;;;11.42;100.00;95395.81;5075546;28;20040;-73
2022/05/16 04:24:54;;;;;;;17.42;11.32;;;;;;;11.58;100.00;95404.81;5061292;28;20043;-73
2022/05/16 04:27:21;;;;;;;14.50;10.43;;;;;;;11.67;100.00;95403.47;5069958;28;20055;-73
2022/05/16 04:29:48;;;;;;;16.35;10.50;;;;;;;11.71;100.00;95403.06;5076424;28;20577;-72
2022/05/16 04:32:15;;;;;;;23.42;10.65;;;;;;;11.64;100.00;95383.06;5080350;28;20729;-72
2022/05/16 04:34:42;;;;;;;18.08;10.65;;;;;;;11.82;100.00;95415.31;5078071;28;20155;-76
2022/05/16 04:37:09;;;;;;;16.20;11.27;;;;;;;11.98;100.00;95414.69;5062193;28;20049;-72
2022/05/16 04:39:36;;;;;;;15.90;11.77;;;;;;;12.05;100.00;95425.81;5078504;28;20043;-73
2022/05/16 04:44:51;;;;;;;19.45;11.02;;;;;;;12.03;100.00;95422.66;5072680;28;20576;-73
2022/05/16 04:47:18;;;;;;;17.27;11.65;;;;;;;12.09;100.00;95414.94;5079245;28;20053;-72
2022/05/16 04:49:45;;;;;;;19.77;12.02;;;;;;;12.21;100.00;95413.13;5074974;28;20059;-74
2022/05/16 04:52:12;;;;;;;19.30;11.63;;;;;;;12.37;100.00;95417.69;5070949;28;20131;-73
2022/05/16 04:54:42;;;;;;;17.48;11.13;;;;;;;12.50;100.00;95431.53;5071202;28;20037;-73
2022/05/16 04:57:09;;;;;;;18.60;10.80;;;;;;;12.60;100.00;95432.56;5076374;28;20056;-74
2022/05/16 04:59:37;;;;;;;17.42;10.70;;;;;;;12.62;100.00;95435.72;5077928;28;20059;-73
2022/05/16 05:02:04;;;;;;;22.05;12.23;;;;;;;12.69;100.00;95427.75;5055851;28;20526;-74
2022/05/16 05:04:30;;;;;;;20.85;11.10;;;;;;;12.78;100.00;95428.19;5070965;28;20072;-74
2022/05/16 05:06:57;;;;;;;18.58;11.48;;;;;;;12.99;100.00;95439.88;5077296;28;20055;-74
2022/05/16 05:09:24;;;;;;;12.75;9.18;;;;;;;13.03;100.00;95441.00;5056569;28;20538;-71
2022/05/16 05:14:41;;;;;;;17.25;10.45;;;;;;;13.13;100.00;95430.75;5073283;28;20050;-74
2022/05/16 05:17:11;;;;;;;14.52;9.10;;;;;;;13.31;100.00;95436.88;5076429;28;20035;-72
2022/05/16 05:19:42;;;;;;;15.57;9.60;;;;;;;13.32;100.00;95438.44;5075310;28;20044;-73
2022/05/16 05:22:09;;;;;;;16.48;10.25;;;;;;;13.45;100.00;95453.91;5072869;28;20046;-74
2022/05/16 05:24:36;;;;;;;13.20;10.02;;;;;;;13.48;100.00;95458.66;5077359;28;20044;-72
2022/05/16 05:27:04;;;;;;;17.30;11.18;;;;;;;13.63;100.00;95454.72;5070760;28;20045;-73
2022/05/16 05:29:32;;;;;;;19.35;11.90;;;;;;;13.63;100.00;95449.47;5073780;28;20047;-73
2022/05/16 05:31:59;;;;;;;20.65;12.73;;;;;;;13.74;100.00;95446.03;5070043;28;20135;-73
2022/05/16 05:34:26;;;;;;;17.35;13.00;;;;;;;13.87;100.00;95456.19;5074417;28;20148;-68
2022/05/16 05:36:53;;;;;;;18.25;10.85;;;;;;;13.78;100.00;95426.19;5075964;28;20049;-77
2022/05/16 05:39:20;;;;;;;15.25;9.95;;;;;;;14.01;100.00;95441.00;5072200;28;20032;-74
2022/05/16 05:41:47;;;;;;;15.50;9.77;;;;;;;14.10;100.00;95459.72;5056143;28;20886;-75
2022/05/16 05:57:57;;;;;;;14.02;10.63;;;;;;;15.30;100.00;95469.81;5111179;27;21043;-72
2022/05/16 06:00:24;;;;;;;12.80;10.18;;;;;;;15.23;100.00;95462.13;5110792;27;20043;-72
2022/05/16 06:02:51;;;;;;;13.82;10.43;;;;;;;15.12;100.00;95465.66;5108667;27;20120;-72
2022/05/16 06:05:20;;;;;;;16.45;10.90;;;;;;;15.08;100.00;95465.34;5113143;27;20176;-72
2022/05/16 06:07:48;;;;;;;13.40;9.90;;;;;;;15.05;100.00;95457.97;5111640;27;20930;-72
2022/05/16 06:10:15;;;;;;;13.18;9.40;;;;;;;15.16;100.00;95455.47;5109940;28;20046;-72
2022/05/16 06:12:43;;;;;;;15.57;9.88;;;;;;;15.24;100.00;95462.91;5111762;27;20773;-72
2022/05/16 06:15:11;;;;;;;13.48;9.88;;;;;;;15.45;100.00;95458.72;5109585;28;20567;-71
2022/05/16 06:17:38;;;;;;;14.52;10.07;;;;;;;15.52;100.00;95454.06;5114093;27;20039;-72
2022/05/16 06:20:10;;;;;;;15.00;10.57;;;;;;;15.62;100.00;95459.41;5109426;27;20051;-72
2022/05/16 06:22:38;;;;;;;14.60;9.23;;;;;;;15.81;100.00;95457.25;5112545;27;20537;-71
2022/05/16 06:25:31;;;;;;;14.18;9.27;;;;;;;15.85;99.16;95463.59;5095549;28;20047;-71
2022/05/16 06:28:04;;;;;;;15.23;9.88;;;;;;;16.01;98.81;95458.50;5110414;28;20046;-72
2022/05/16 06:30:34;;;;;;;13.30;9.85;;;;;;;16.20;98.34;95449.19;5124126;27;20040;-73
2022/05/16 06:33:01;;;;;;;14.18;10.35;;;;;;;16.44;97.39;95459.38;5108555;28;20166;-71
2022/05/16 06:35:28;;;;;;;14.55;9.82;;;;;;;16.59;95.88;95462.09;5108492;27;20035;-71
2022/05/16 06:37:55;;;;;;;12.65;9.23;;;;;;;16.62;94.33;95461.59;5106884;28;20113;-72
2022/05/16 06:40:22;;;;;;;16.58;10.10;;;;;;;16.65;94.00;95448.97;5110841;28;20055;-72
2022/05/16 06:42:49;;;;;;;11.55;9.35;;;;;;;16.96;93.71;95456.03;5108878;27;20044;-73
2022/05/16 06:45:17;;;;;;;12.98;9.73;;;;;;;17.23;93.48;95459.56;5108406;27;20070;-70
2022/05/16 06:47:44;;;;;;;13.43;9.30;;;;;;;17.27;91.83;95440.38;5111748;28;20047;-68
2022/05/16 06:50:12;;;;;;;14.23;9.93;;;;;;;17.47;91.83;95459.94;5107909;28;20046;-69
2022/05/16 06:52:39;;;;;;;15.20;9.10;;;;;;;17.60;89.46;95475.22;5109871;27;20556;-69
2022/05/16 06:55:07;;;;;;;14.32;9.98;;;;;;;17.66;90.72;95463.66;5110194;28;20039;-69
2022/05/16 06:57:33;;;;;;;14.18;9.68;;;;;;;17.77;91.15;95469.72;5107002;27;20622;-67
2022/05/16 07:00:01;;;;;;;15.63;9.80;;;;;;;17.90;90.30;95461.38;5100182;28;20039;-67
2022/05/16 07:02:27;;;;;;;19.92;10.05;;;;;;;18.00;88.84;95463.22;5094513;28;20036;-70
2022/05/16 07:04:54;;;;;;;11.43;9.05;;;;;;;18.07;89.11;95457.69;5094556;28;20135;-70
2022/05/16 07:07:21;;;;;;;10.25;8.80;;;;;;;18.04;88.55;95463.47;5094015;28;20032;-66
2022/05/16 07:09:48;;;;;;;13.18;8.07;;;;;;;18.12;88.15;95458.47;5093899;28;20440;-65
2022/05/16 07:12:15;;;;;;;16.15;9.18;;;;;;;18.24;86.86;95452.97;5097289;28;20043;-65
2022/05/16 07:14:42;;;;;;;14.48;10.02;;;;;;;18.34;86.79;95463.47;5096488;28;20514;-65
2022/05/16 07:17:09;;;;;;;12.82;8.68;;;;;;;18.47;85.98;95451.59;5096415;28;20131;-71
2022/05/16 07:19:37;;;;;;;13.20;8.38;;;;;;;18.56;84.64;95453.72;5097969;28;20039;-67
2022/05/16 07:22:09;;;;;;;12.15;8.48;;;;;;;18.65;85.25;95457.41;5095256;28;20063;-67
2022/05/16 07:24:36;;;;;;;11.38;8.65;;;;;;;18.88;83.99;95453.44;5098417;28;20044;-67
2022/05/16 07:29:49;;;;;;;10.77;8.30;;;;;;;18.99;81.87;95456.84;5092930;28;20105;-66
2022/05/16 07:32:16;;;;;;;10.57;8.63;;;;;;;19.22;83.24;95445.66;5089208;27;20132;-66
2022/05/16 07:34:43;;;;;;;11.20;8.50;;;;;;;19.59;82.98;95452.38;5091718;27;20044;-70
2022/05/16 07:37:10;;;;;;;12.40;9.10;;;;;;;19.76;80.09;95448.59;5095316;28;20043;-70
2022/05/16 07:39:38;;;;;;;13.55;8.63;;;;;;;19.78;81.19;95435.91;5094808;28;20518;-69
2022/05/16 07:42:07;;;;;;;12.82;9.05;;;;;;;19.85;80.92;95439.03;5095154;28;20046;-69
2022/05/16 07:44:36;;;;;;;11.95;8.75;;;;;;;19.83;80.62;95427.94;5098149;28;20078;-69
2022/05/16 07:47:03;;;;;;;13.88;8.65;;;;;;;20.10;81.03;95437.28;5097189;28;20406;-69
2022/05/16 07:49:30;;;;;;;9.80;8.23;;;;;;;20.34;79.51;95446.06;5098356;28;20089;-68
2022/05/16 07:51:57;;;;;;;12.73;8.27;;;;;;;20.39;79.24;95440.72;5097639;28;20043;-69
2022/05/16 07:54:24;;;;;;;12.50;8.50;;;;;;;20.10;77.31;95442.56;5097431;28;20414;-69
2022/05/16 07:56:51;;;;;;;12.85;8.30;;;;;;;20.25;77.19;95439.78;5096969;28;20044;-69
2022/05/16 07:59:17;;;;;;;12.07;8.02;;;;;;;20.44;75.80;95435.41;5097733;28;20055;-68
2022/05/16 08:01:44;;;;;;;9.63;7.28;;;;;;;20.66;74.50;95438.69;5099091;28;20714;-69
2022/05/16 08:04:12;;;;;;;11.57;8.93;;;;;;;20.56;73.52;95423.66;5095486;28;20066;-68
2022/05/16 08:06:39;;;;;;;9.23;7.07;;;;;;;20.80;72.25;95435.09;5097647;28;20031;-69
2022/05/16 08:11:51;;;;;;;12.10;7.80;;;;;;;21.25;66.35;95445.44;5095775;28;20048;-69
2022/05/16 08:14:18;;;;;;;6.78;5.93;;;;;;;21.39;66.34;95446.34;5096742;28;20055;-69
2022/05/16 08:16:45;;;;;;;11.50;8.05;;;;;;;21.44;65.51;95442.81;5100906;28;20031;-70
2022/05/16 08:19:12;;;;;;;15.02;6.72;;;;;;;21.35;65.37;95433.94;5101910;28;20044;-81
2022/05/16 08:21:41;;;;;;;9.80;6.78;;;;;;;21.47;64.92;95442.28;5129864;28;20052;-81
2022/05/16 08:24:11;;;;;;;12.30;5.75;;;;;;;21.79;62.46;95432.84;5127112;28;20050;-80
2022/05/16 08:26:38;;;;;;;14.25;6.30;;;;;;;21.82;60.32;95437.56;5126098;28;20115;-80
2022/05/16 08:29:06;;;;;;;10.80;6.15;;;;;;;21.95;60.02;95431.56;5125443;28;20055;-81
2022/05/16 08:31:33;;;;;;;21.98;7.70;;;;;;;21.99;60.50;95430.97;5132104;28;20039;-80
2022/05/16 08:34:09;;;;;;;7.50;4.47;;;;;;;22.27;55.76;95427.38;5132122;28;20036;-80
2022/05/16 08:42:16;;;;;;;10.38;5.68;;;;;;;22.84;55.60;95434.34;5092965;28;20523;-69
2022/05/16 08:45:06;;;;;;;6.25;5.63;;;;;;;22.81;54.81;95434.94;5096501;28;20043;-69
2022/05/16 08:48:10;;;;;;;10.52;7.15;;;;;;;22.90;54.42;95430.50;5099431;28;20036;-69
2022/05/16 08:50:48;;;;;;;9.50;5.68;;;;;;;23.02;53.80;95430.81;5094968;28;20055;-69
2022/05/16 08:53:26;;;;;;;8.90;4.40;;;;;;;23.03;48.26;95432.41;5096054;28;20122;-69
2022/05/16 08:55:57;;;;;;;5.63;3.10;;;;;;;23.14;44.50;95421.59;5105405;27;20044;-69
2022/05/16 08:58:30;;;;;;;4.18;3.25;;;;;;;23.30;41.37;95425.53;5096898;28;20044;-69
2022/05/16 09:01:01;;;;;;;11.35;3.28;;;;;;;23.17;42.19;95411.16;5098746;28;20048;-69
2022/05/16 09:03:33;;;;;;;3.67;2.92;;;;;;;23.17;39.74;95421.00;5099069;28;20036;-69
2022/05/16 09:06:11;;;;;;;3.45;2.83;;;;;;;23.29;39.80;95418.63;5097941;28;20052;-69
2022/05/16 09:08:38;;;;;;;4.28;3.33;;;;;;;23.34;40.13;95415.09;5096504;28;20123;-69
2022/05/16 09:11:16;;;;;;;5.57;3.20;;;;;;;23.56;39.35;95417.78;5094724;28;20054;-68
2022/05/16 09:14:00;;;;;;;3.95;2.67;;;;;;;23.54;37.71;95414.66;5098953;28;20051;-69
2022/05/16 09:16:45;;;;;;;4.20;2.25;;;;;;;23.90;37.82;95421.88;5096253;28;20043;-68
2022/05/16 09:19:49;;;;;;;3.40;2.38;;;;;;;24.26;36.15;95412.28;5094551;28;20032;-68
2022/05/16 09:22:30;;;;;;;4.22;2.60;;;;;;;24.45;33.80;95404.84;5097215;28;20040;-69
2022/05/16 09:25:26;;;;;;;4.05;1.95;;;;;;;24.56;33.40;95400.88;5090785;28;20128;-69
2022/05/16 09:30:48;;;;;;;2.45;2.22;;;;;;;25.07;32.90;95408.59;5098185;28;20433;-71
2022/05/16 09:33:24;;;;;;;2.15;1.85;;;;;;;24.91;30.81;95403.69;5097291;28;21123;-72
2022/05/16 09:36:07;;;;;;;3.53;1.98;;;;;;;24.86;30.13;95401.16;5099339;28;20047;-70
2022/05/16 09:38:34;;;;;;;4.10;1.92;;;;;;;25.05;29.71;95394.78;5098073;28;20047;-72
2022/05/16 09:41:08;;;;;;;2.90;1.80;;;;;;;25.26;28.13;95401.13;5098268;28;20038;-68
2022/05/16 09:43:50;;;;;;;2.28;1.63;;;;;;;25.33;27.48;95390.78;5098970;28;20039;-69
2022/05/16 09:46:28;;;;;;;3.50;1.88;;;;;;;25.86;26.94;95402.28;5097825;28;21108;-73
2022/05/16 09:49:06;;;;;;;6.32;1.98;;;;;;;26.08;27.24;95404.03;5099086;28;20044;-75
2022/05/16 09:51:56;;;;;;;2.67;1.40;;;;;;;26.17;28.17;95396.00;5100728;28;20040;-75
2022/05/16 09:54:36;;;;;;;5.85;2.05;;;;;;;26.36;26.78;95389.53;5098508;28;20048;-75
2022/05/16 09:57:03;;;;;;;2.55;1.75;;;;;;;26.19;27.03;95387.69;5095792;28;20054;-75
2022/05/16 09:59:52;;;;;;;3.83;2.00;;;;;;;26.02;26.77;95373.28;5107096;28;20051;-75
2022/05/16 10:02:23;;;;;;;2.33;1.67;;;;;;;26.27;27.87;95384.22;5097161;28;20105;-75
2022/05/16 10:04:56;;;;;;;2.13;1.65;;;;;;;26.03;27.85;95374.84;5095593;28;20046;-75
2022/05/16 10:07:31;;;;;;;5.10;2.33;;;;;;;26.10;27.25;95379.69;5096817;28;20035;-75
2022/05/16 10:09:59;;;;;;;4.18;1.95;;;;;;;26.24;27.79;95363.50;5095088;28;20571;-75
2022/05/16 10:12:28;;;;;;;3.60;2.00;;;;;;;26.61;28.78;95371.91;5094812;28;20130;-75
2022/05/16 10:14:55;;;;;;;3.20;2.00;;;;;;;26.45;27.14;95359.03;5099196;28;20126;-76
2022/05/16 10:17:36;;;;;;;2.03;1.45;;;;;;;26.68;27.73;95358.81;5097777;28;20035;-75
2022/05/16 10:20:15;;;;;;;2.95;2.17;;;;;;;27.44;26.95;95360.63;5097961;28;20036;-76
2022/05/16 10:22:44;;;;;;;4.00;2.35;;;;;;;26.84;27.00;95354.50;5097178;28;20051;-74
2022/05/16 10:25:38;;;;;;;2.90;2.10;;;;;;;27.01;27.73;95352.84;5098816;28;20063;-74
2022/05/16 10:28:09;;;;;;;3.22;1.80;;;;;;;27.17;27.59;95356.53;5098011;28;20535;-74
2022/05/16 10:33:29;;;;;;;3.30;2.35;;;;;;;27.10;28.72;95345.56;5089029;28;20059;-74
2022/05/16 10:36:01;;;;;;;3.13;2.10;;;;;;;27.29;28.02;95347.06;5098757;28;20406;-74
2022/05/16 10:38:44;;;;;;;2.83;2.15;;;;;;;27.48;27.67;95341.25;5100946;28;20084;-74
2022/05/16 10:41:16;;;;;;;3.65;1.73;;;;;;;27.33;28.59;95334.59;5100224;28;20533;-68
2022/05/16 10:44:08;;;;;;;4.88;2.22;;;;;;;27.91;27.78;95335.56;5096922;28;20043;-68
2022/05/16 10:46:42;;;;;;;6.55;2.70;;;;;;;27.68;27.62;95326.28;5100169;28;20031;-69
2022/05/16 10:49:11;;;;;;;;;;;;;;;27.72;27.59;95333.34;5097251;28;20345;-69
2022/05/16 10:51:55;;;;;;;4.43;2.25;;;;;;;27.47;26.88;95332.44;5102357;28;20418;-67
2022/05/16 10:54:24;;;;;;;3.58;1.65;;;;;;;27.45;27.19;95330.09;5097513;28;20043;-68
2022/05/16 10:57:50;;;;;;;2.42;2.10;;;;;;;27.64;27.89;95326.97;5095586;28;20147;-67
2022/05/16 11:00:25;;;;;;;2.28;1.88;;;;;;;27.97;26.05;95323.53;5063310;27;20056;-68
2022/05/16 11:03:22;;;;;;;2.95;2.10;;;;;;;27.85;26.46;95326.91;5103036;28;20357;-68
2022/05/16 11:06:19;;;;;;;3.58;2.22;;;;;;;27.74;25.93;95330.34;5100682;28;20054;-69
2022/05/16 11:09:11;;;;;;;4.07;1.95;;;;;;;27.77;27.16;95329.69;5100456;28;20039;-69
2022/05/16 11:11:58;;;;;;;3.22;1.80;;;;;;;27.59;26.73;95324.47;5097407;28;20054;-68
2022/05/16 11:14:38;;;;;;;2.83;2.13;;;;;;;27.73;26.84;95328.75;5099848;28;20051;-68
2022/05/16 11:17:14;;;;;;;2.92;1.75;;;;;;;27.97;26.46;95312.81;5101078;28;20109;-68
2022/05/16 11:20:20;;;;;;;4.50;1.95;;;;;;;28.44;25.72;95313.59;5098459;28;20051;-68
2022/05/16 11:23:02;;;;;;;1.58;1.40;;;;;;;28.81;24.17;95311.72;5100288;28;20040;-67
2022/05/16 11:26:01;;;;;;;3.15;2.22;;;;;;;28.95;25.29;95300.66;5098214;28;20035;-67
2022/05/16 11:32:07;;;;;;;2.47;1.90;;;;;;;28.82;23.98;95307.16;5096463;28;20248;-68
2022/05/16 11:34:58;;;;;;;6.75;2.75;;;;;;;28.65;23.13;95306.25;5101529;28;20043;-68
2022/05/16 11:37:47;;;;;;;2.95;1.70;;;;;;;28.96;24.67;95296.84;5100240;28;20039;-69
2022/05/16 11:40:23;;;;;;;5.40;2.10;;;;;;;28.89;24.39;95302.78;5100971;28;20039;-70
2022/05/16 11:43:08;;;;;;;2.10;1.50;;;;;;;29.03;23.86;95299.75;5096110;28;20063;-67
2022/05/16 11:46:23;;;;;;;3.55;1.83;;;;;;;29.05;23.77;95289.47;5099731;28;20047;-67
2022/05/16 11:49:04;;;;;;;4.32;2.53;;;;;;;29.42;23.76;95286.69;5095691;28;20641;-66
2022/05/16 11:52:22;;;;;;;3.05;2.03;;;;;;;29.50;23.25;95288.47;5096039;28;20046;-68
2022/05/16 12:01:29;;;;;;;2.47;1.75;;;;;;;30.77;22.35;95276.31;5099835;28;20055;-67
2022/05/16 12:04:22;;;;;;;6.82;2.28;;;;;;;30.07;22.60;95273.13;5102483;28;20074;-71
2022/05/16 12:06:54;;;;;;;3.17;2.03;;;;;;;30.54;22.22;95274.28;5105239;28;20039;-71
2022/05/16 12:09:32;;;;;;;1.90;1.33;;;;;;;30.85;21.75;95267.31;5099600;28;20464;-66
2022/05/16 12:12:04;;;;;;;2.75;1.40;;;;;;;30.87;22.39;95275.78;5100052;28;20459;-67
2022/05/16 12:14:37;;;;;;;4.43;1.75;;;;;;;30.56;22.05;95266.66;5098291;28;20054;-67
2022/05/16 12:17:19;;;;;;;2.63;1.70;;;;;;;30.11;21.00;95265.16;5100384;28;20131;-66
2022/05/16 12:19:53;;;;;;;2.20;1.75;;;;;;;30.22;21.64;95260.84;5100306;28;20036;-66
2022/05/16 12:22:30;;;;;;;2.38;1.45;;;;;;;30.29;21.75;95252.94;5098581;28;20039;-67
2022/05/16 12:25:08;;;;;;;3.45;2.00;;;;;;;30.44;21.47;95253.31;5094613;28;20638;-68
2022/05/16 12:27:44;;;;;;;2.45;1.80;;;;;;;30.75;20.03;95251.69;5101322;28;20031;-68
2022/05/16 12:30:33;;;;;;;4.63;1.88;;;;;;;30.79;21.52;95252.56;5098362;28;20108;-68
2022/05/16 12:33:00;;;;;;;5.40;1.80;;;;;;;30.56;21.95;95242.47;5102143;28;20044;-67
2022/05/16 12:35:27;;;;;;;1.65;1.50;;;;;;;30.73;21.61;95237.84;5099961;28;20040;-78
2022/05/16 12:37:55;;;;;;;2.75;2.00;;;;;;;31.47;21.88;95226.31;5105736;28;20118;-77
2022/05/16 12:40:56;;;;;;;3.08;2.25;;;;;;;31.60;21.53;95241.97;5099784;28;20617;-77
2022/05/16 12:43:57;;;;;;;3.17;2.38;;;;;;;31.49;21.30;95229.44;5096887;28;20039;-73